Scroll down
FLIGHT INFORMATION
American Airlines

AAL4996

At Arrival Gate

KSTL
 KORD
DATE: 2021-08-14
GATE: C12
GATE DEPARTURE: 23:16
TAKEOFF: 23:25
DATE: 2021-08-15
GATE:  -
LANDING: 00:12
GATE ARRIVAL: 00:23
FLIGHT DATA
Crew: 
Speed: 
490 kts
Altitude: 
25,003 ft
Stage Length: 
224.4 nm
Block Time: 
1.1 hrs
Flight Time: 
0.8 hrs
Fuel Used: 
6,250 lb
Cleared Route: KSTL FUNKE BEART GMSKI KSHEE LEBOY CASHN VINCA MAROC KELTS FNBAR TRIDE SHAIN RAGSS JUMPN NUNWS RRUDA RW10C
TRACK DATA
50,000 ft 1,000 kts
AIRCRAFT INFO AND CUMULATIVE STATS
Aircraft Type: 
B738BW
Registration: 
SELCAL: 
BGFM
MSN/LN: 
33344 / 6345
Operator: 
Total Flights: 
3
Total Block Time: 
7.1 hrs
Total Flight Time: 
6.2 hrs
Total Fuel Used: 
45,594 lb
DATALINK LOG | Newest first | Current as of: 2022-10-04 20:06:53
LABEL SEQUENCE CONTENT Dn/Up
QD252500:23 8▼ Dn
QC141400:12▼ Dn
2U5239KORD 142251Z 06008KT 10SM FEW065 BKN250 24/07 A3024 RMK AO2 SLP235 T02440072▲ Up
2S5255KORD▼ Dn
QB273223:25▼ Dn
QA172323:16 14.2▼ Dn
2U0740KSTL 142251Z VRB05KT 10SM FEW050 SCT250 28/14 A3018 RMK AO2 SLP211 T02830139▲ Up
2S0814KSTL▼ Dn
2U0524KSTL 142151Z 02009KT 10SM FEW050 SCT250 29/13 A3019 RMK AO2 SLP211 T02890128▲ Up
5U0520KORD 150258Z 10004KT 10SM FEW250 26/09 A3024▲ Up
2U0513KORD 142151Z 06010KT 10SM FEW060 BKN250 26/09 A3024 RMK AO2 SLP237 T02560089▲ Up
2S0713KSTL▼ Dn
5S0713KORD▼ Dn
2S0713KORD▼ Dn
2U0505KSTL 142151Z 02009KT 10SM FEW050 SCT250 29/13 A3019 RMK AO2 SLP211 T02890128▲ Up
2S0612KSTL▼ Dn
A30218CLEARED TO KORD VIA KSHEE5 LEBOY CASHN SHAIN2. SQUAWK 7423.▲ Up
5U0136KORD 150258Z 10004KT 10SM FEW250 26/09 A3024▲ Up
2U0133KSTL 142151Z 02009KT 10SM FEW050 SCT250 29/13 A3019 RMK AO2 SLP211 T02890128▲ Up
5S0216KORD▼ Dn
2S0215KSTL▼ Dn
Q00107[LINK ACK]▲ Up
Q00107[LINK TEST]▼ Dn


AIRCRAFT HISTORY
FLIGHT DATE FLIGHT NO. ORIGIN DESTINATION CLEARED ROUTE BLOCK TIME FLIGHT TIME FUEL USED PILOT
2021-08-15AAL922KORD KMIA KORD CMSKY CARYN CYBIL PXV BNA ACORI BULZI SNAPY NICKI BITNY ENDEW DANSE FARPO BETTL MATCY RAKLE HARAP FROGZ ARRTT ASPPN PBJAY MABYB ACERE LLEGG COPRA RW08R3 hrs2.7 hrs16,991 lbGeorge
2021-08-14AAL4996KSTL KORD KSTL FUNKE BEART GMSKI KSHEE LEBOY CASHN VINCA MAROC KELTS FNBAR TRIDE SHAIN RAGSS JUMPN NUNWS RRUDA RW10C1.1 hrs0.8 hrs6,250 lbGeorge
2021-08-10AAL1413KFLL KSTL KFLL JUMAR HAPOR SECOR ATONE ARKES SEAZY ETORE DEEDA VUZ LOBBS GOOGY MEM ZESAM BSIDE FTZ GROOV CASHN VINCA MAROC TRICH TRTLL HIHRY RINNO JORJO MONKZ TONIE HAZIL RW28C3 hrs2.8 hrs22,353 lbGeorge